Time;durP1;ratioP1;P1;durP2;ratioP2;P2;SDS_P1;SDS_P2;PMS_P1;PMS_P2;Temp;Humidity;BMP_temperature;BMP_pressure;BME280_temperature;BME280_humidity;BME280_pressure;Samples;Min_cycle;Max_cycle;Signal;HPM_P1;HPM_P2
2023/03/12 00:01:39;;;;;;;0.33;0.33;;;;;;;;;;5071354;28;20201;-61
2023/03/12 00:04:06;;;;;;;0.43;0.43;;;;;;;;;;5072059;28;20209;-60
2023/03/12 00:06:34;;;;;;;5.17;0.50;;;;;;;;;;5071322;28;20220;-61
2023/03/12 00:09:03;;;;;;;0.37;0.37;;;;;;;;;;5070990;28;20233;-60
2023/03/12 00:11:30;;;;;;;0.30;0.30;;;;;;;;;;5071364;28;20224;-61
2023/03/12 00:13:59;;;;;;;0.70;0.70;;;;;;;;;;5070953;28;20311;-61
2023/03/12 00:16:27;;;;;;;0.80;0.80;;;;;;;;;;5070943;28;20756;-61
2023/03/12 00:18:55;;;;;;;0.60;0.60;;;;;;;;;;5071178;28;20726;-61
2023/03/12 00:21:22;;;;;;;1.60;0.53;;;;;;;;;;5071240;28;20241;-60
2023/03/12 00:23:50;;;;;;;0.60;0.60;;;;;;;;;;5071071;28;20210;-60
2023/03/12 00:26:19;;;;;;;0.77;0.77;;;;;;;;;;5071120;28;20218;-61
2023/03/12 00:28:47;;;;;;;0.57;0.57;;;;;;;;;;5071179;28;20216;-61
2023/03/12 00:31:15;;;;;;;0.70;0.70;;;;;;;;;;5090289;28;20209;-61
2023/03/12 00:33:42;;;;;;;0.33;0.33;;;;;;;;;;5090783;28;20216;-61
2023/03/12 00:36:09;;;;;;;0.80;0.70;;;;;;;;;;5088495;28;20205;-61
2023/03/12 00:38:36;;;;;;;0.27;0.27;;;;;;;;;;5090522;28;20243;-61
2023/03/12 00:41:04;;;;;;;0.80;0.80;;;;;;;;;;5086853;28;20695;-61
2023/03/12 00:43:32;;;;;;;0.87;0.47;;;;;;;;;;5089645;28;20255;-61
2023/03/12 00:45:59;;;;;;;0.23;0.23;;;;;;;;;;5089463;28;20210;-61
2023/03/12 00:48:26;;;;;;;0.40;0.40;;;;;;;;;;5088168;28;20603;-61
2023/03/12 00:50:53;;;;;;;0.70;0.70;;;;;;;;;;5050184;28;20210;-61
2023/03/12 00:53:20;;;;;;;0.50;0.50;;;;;;;;;;5065123;28;20216;-61
2023/03/12 00:55:47;;;;;;;0.47;0.30;;;;;;;;;;5089014;28;20216;-60
2023/03/12 00:58:15;;;;;;;1.03;0.70;;;;;;;;;;5075639;28;20206;-61
2023/03/12 01:00:43;;;;;;;0.70;0.57;;;;;;;;;;5087454;28;20234;-60
2023/03/12 01:03:10;;;;;;;2.00;0.90;;;;;;;;;;5076107;28;20209;-61
2023/03/12 01:05:39;;;;;;;0.87;0.87;;;;;;;;;;5085783;28;20219;-60
2023/03/12 01:08:07;;;;;;;0.70;0.50;;;;;;;;;;5076634;28;20229;-60
2023/03/12 01:10:34;;;;;;;0.50;0.50;;;;;;;;;;5084917;28;20205;-59
2023/03/12 01:13:01;;;;;;;0.87;0.87;;;;;;;;;;5088327;28;20206;-61
2023/03/12 01:15:28;;;;;;;0.27;0.27;;;;;;;;;;5076305;28;20255;-60
2023/03/12 01:17:57;;;;;;;0.53;0.50;;;;;;;;;;5081947;28;20263;-60
2023/03/12 01:20:24;;;;;;;1.27;0.77;;;;;;;;;;5077395;28;20241;-61
2023/03/12 01:22:51;;;;;;;1.10;0.67;;;;;;;;;;5081105;28;20243;-61
2023/03/12 01:25:19;;;;;;;0.47;0.47;;;;;;;;;;5078931;28;20272;-60
2023/03/12 01:27:46;;;;;;;0.47;0.47;;;;;;;;;;5070026;28;20206;-61
2023/03/12 01:30:13;;;;;;;2.83;0.70;;;;;;;;;;5079353;28;20206;-60
2023/03/12 01:32:40;;;;;;;0.30;0.30;;;;;;;;;;5089565;28;20209;-60
2023/03/12 01:35:09;;;;;;;1.60;0.60;;;;;;;;;;5074797;28;20574;-60
2023/03/12 01:37:36;;;;;;;2.83;0.70;;;;;;;;;;5078796;28;20247;-61
2023/03/12 01:40:04;;;;;;;0.90;0.90;;;;;;;;;;5075607;28;20221;-60
2023/03/12 01:42:31;;;;;;;1.17;1.13;;;;;;;;;;5077886;28;20207;-59
2023/03/12 01:44:59;;;;;;;0.70;0.70;;;;;;;;;;5077117;28;20234;-61
2023/03/12 01:47:26;;;;;;;0.47;0.33;;;;;;;;;;5069666;28;20214;-61
2023/03/12 01:49:54;;;;;;;0.50;0.50;;;;;;;;;;5069910;28;20213;-60
2023/03/12 01:52:25;;;;;;;0.33;0.33;;;;;;;;;;5069474;28;20768;-61
2023/03/12 01:54:55;;;;;;;0.80;0.80;;;;;;;;;;5080391;28;20205;-61
2023/03/12 01:57:24;;;;;;;0.57;0.57;;;;;;;;;;5082211;28;20224;-61
2023/03/12 01:59:53;;;;;;;0.60;0.60;;;;;;;;;;5076209;28;20320;-60
2023/03/12 02:02:25;;;;;;;0.37;0.37;;;;;;;;;;5085446;28;20202;-60
2023/03/12 02:04:53;;;;;;;0.77;0.73;;;;;;;;;;5086390;28;20731;-60
2023/03/12 02:07:20;;;;;;;5.40;0.80;;;;;;;;;;5082947;28;20201;-60
2023/03/12 02:09:49;;;;;;;0.70;0.70;;;;;;;;;;5089551;28;20660;-61
2023/03/12 02:12:17;;;;;;;1.17;1.07;;;;;;;;;;5084379;28;20204;-61
2023/03/12 02:14:44;;;;;;;0.50;0.50;;;;;;;;;;5082095;28;20502;-61
2023/03/12 02:17:12;;;;;;;2.87;0.80;;;;;;;;;;5072205;28;20583;-60
2023/03/12 02:19:43;;;;;;;1.53;0.73;;;;;;;;;;5068924;28;20226;-60
2023/03/12 02:22:11;;;;;;;0.60;0.60;;;;;;;;;;5081127;28;20229;-60
2023/03/12 02:24:42;;;;;;;0.50;0.50;;;;;;;;;;5083307;28;20212;-60
2023/03/12 02:27:11;;;;;;;0.40;0.40;;;;;;;;;;5089460;28;20204;-61
2023/03/12 02:29:40;;;;;;;0.80;0.80;;;;;;;;;;5081857;28;20203;-60
2023/03/12 02:32:08;;;;;;;1.20;0.50;;;;;;;;;;5054351;28;20242;-61
2023/03/12 02:34:35;;;;;;;0.60;0.60;;;;;;;;;;5055095;28;20271;-60
2023/03/12 02:37:02;;;;;;;0.50;0.50;;;;;;;;;;5077216;28;20209;-61
2023/03/12 02:39:29;;;;;;;2.90;0.80;;;;;;;;;;5086978;28;20268;-61
2023/03/12 02:41:57;;;;;;;0.70;0.67;;;;;;;;;;5089157;28;20260;-60
2023/03/12 02:44:28;;;;;;;1.17;1.10;;;;;;;;;;5086177;28;20206;-61
2023/03/12 02:46:56;;;;;;;0.60;0.60;;;;;;;;;;5083425;28;20652;-61
2023/03/12 02:49:24;;;;;;;1.23;1.00;;;;;;;;;;5071475;28;20212;-60
2023/03/12 02:51:51;;;;;;;0.67;0.67;;;;;;;;;;5068534;28;20862;-61
2023/03/12 02:54:19;;;;;;;3.03;0.70;;;;;;;;;;5071300;28;20673;-61
2023/03/12 02:56:46;;;;;;;0.87;0.83;;;;;;;;;;5068927;28;20206;-61
2023/03/12 02:59:14;;;;;;;0.47;0.47;;;;;;;;;;5070618;28;20271;-61
2023/03/12 03:01:42;;;;;;;1.20;1.20;;;;;;;;;;5070041;28;20207;-61
2023/03/12 03:04:10;;;;;;;1.03;1.03;;;;;;;;;;5071311;28;20229;-61
2023/03/12 03:06:38;;;;;;;0.87;0.87;;;;;;;;;;5068656;28;20569;-61
2023/03/12 03:09:05;;;;;;;2.10;1.50;;;;;;;;;;5070128;28;20560;-61
2023/03/12 03:11:32;;;;;;;1.30;0.57;;;;;;;;;;5069721;28;20690;-61
2023/03/12 03:14:02;;;;;;;2.47;1.73;;;;;;;;;;5068671;28;20212;-61
2023/03/12 03:16:29;;;;;;;1.60;0.57;;;;;;;;;;5072219;28;20301;-61
2023/03/12 03:18:57;;;;;;;0.43;0.43;;;;;;;;;;5083496;28;20210;-61
2023/03/12 03:21:24;;;;;;;0.80;0.80;;;;;;;;;;5072149;28;20238;-61
2023/03/12 03:23:52;;;;;;;1.90;1.20;;;;;;;;;;5081754;28;20197;-61
2023/03/12 03:26:20;;;;;;;2.00;1.10;;;;;;;;;;5092460;28;20214;-61
2023/03/12 03:28:47;;;;;;;0.63;0.63;;;;;;;;;;5086313;28;20229;-61
2023/03/12 03:31:14;;;;;;;1.17;0.87;;;;;;;;;;5092250;28;20213;-61
2023/03/12 03:33:41;;;;;;;1.00;1.00;;;;;;;;;;5080059;28;20199;-61
2023/03/12 03:36:10;;;;;;;0.83;0.83;;;;;;;;;;5072071;28;20284;-61
2023/03/12 03:38:37;;;;;;;1.97;1.23;;;;;;;;;;5081361;28;20230;-61
2023/03/12 03:41:04;;;;;;;0.77;0.77;;;;;;;;;;5071766;28;20297;-61
2023/03/12 03:43:31;;;;;;;0.63;0.63;;;;;;;;;;5076165;28;20199;-61
2023/03/12 03:45:59;;;;;;;1.63;0.77;;;;;;;;;;5071941;28;20588;-61
2023/03/12 03:48:26;;;;;;;1.63;1.00;;;;;;;;;;5072436;28;20203;-61
2023/03/12 03:50:53;;;;;;;1.30;1.20;;;;;;;;;;5071461;28;20703;-61
2023/03/12 03:53:22;;;;;;;1.03;0.93;;;;;;;;;;5077660;28;20198;-61
2023/03/12 03:55:49;;;;;;;1.03;0.80;;;;;;;;;;5071774;28;20385;-61
2023/03/12 03:58:16;;;;;;;1.00;0.90;;;;;;;;;;5071667;28;20213;-61
2023/03/12 04:00:44;;;;;;;0.93;0.83;;;;;;;;;;5071481;28;20226;-61
2023/03/12 04:03:12;;;;;;;0.70;0.70;;;;;;;;;;5087464;28;20206;-61
2023/03/12 04:05:39;;;;;;;1.03;1.03;;;;;;;;;;5091084;28;20202;-61
2023/03/12 04:08:06;;;;;;;1.80;1.27;;;;;;;;;;5077710;28;20206;-62
2023/03/12 04:10:34;;;;;;;1.47;1.00;;;;;;;;;;5073412;28;20211;-61
2023/03/12 04:13:02;;;;;;;0.57;0.57;;;;;;;;;;5077656;28;20206;-61
2023/03/12 04:15:29;;;;;;;0.93;0.93;;;;;;;;;;5071231;28;20303;-61
2023/03/12 04:17:56;;;;;;;0.77;0.77;;;;;;;;;;5083437;28;20217;-61
2023/03/12 04:20:23;;;;;;;1.00;1.00;;;;;;;;;;5089167;28;20291;-61
2023/03/12 04:22:50;;;;;;;0.93;0.93;;;;;;;;;;5080015;28;20238;-61
2023/03/12 04:25:17;;;;;;;1.67;1.10;;;;;;;;;;5070914;28;20240;-61
2023/03/12 04:27:45;;;;;;;1.37;1.10;;;;;;;;;;5081270;28;20225;-61
2023/03/12 04:30:13;;;;;;;1.10;1.10;;;;;;;;;;5072175;28;20209;-61
2023/03/12 04:32:40;;;;;;;0.97;0.97;;;;;;;;;;5090414;28;20660;-61
2023/03/12 04:35:07;;;;;;;1.50;1.27;;;;;;;;;;5087435;28;20210;-61
2023/03/12 04:37:34;;;;;;;1.53;0.90;;;;;;;;;;5080447;28;20245;-61
2023/03/12 04:40:02;;;;;;;1.30;1.30;;;;;;;;;;5089102;28;20211;-61
2023/03/12 04:42:30;;;;;;;0.73;0.73;;;;;;;;;;5083587;28;20213;-60
2023/03/12 04:44:59;;;;;;;1.17;1.00;;;;;;;;;;5090979;28;20217;-61
2023/03/12 04:47:26;;;;;;;1.63;1.53;;;;;;;;;;5080004;28;20298;-61
2023/03/12 04:49:53;;;;;;;0.90;0.90;;;;;;;;;;5074317;28;20649;-61
2023/03/12 04:52:20;;;;;;;1.40;1.30;;;;;;;;;;5072885;28;20218;-61
2023/03/12 04:54:47;;;;;;;0.87;0.50;;;;;;;;;;5070730;28;20219;-61
2023/03/12 04:57:14;;;;;;;4.17;1.67;;;;;;;;;;5089022;28;20209;-61
2023/03/12 04:59:41;;;;;;;0.93;0.93;;;;;;;;;;5089202;28;20202;-61
2023/03/12 05:02:09;;;;;;;0.40;0.40;;;;;;;;;;5073938;28;20225;-62
2023/03/12 05:04:36;;;;;;;0.70;0.70;;;;;;;;;;5077606;28;20209;-61
2023/03/12 05:07:04;;;;;;;1.43;0.83;;;;;;;;;;5090002;28;20210;-61
2023/03/12 05:09:31;;;;;;;1.80;1.00;;;;;;;;;;5087924;28;20207;-61
2023/03/12 05:11:58;;;;;;;1.10;1.10;;;;;;;;;;5070204;28;20662;-61
2023/03/12 05:14:25;;;;;;;1.37;0.80;;;;;;;;;;5070030;28;20207;-61
2023/03/12 05:16:52;;;;;;;1.83;0.80;;;;;;;;;;5073592;28;20656;-61
2023/03/12 05:19:20;;;;;;;1.80;1.27;;;;;;;;;;5090247;28;20210;-61
2023/03/12 05:21:47;;;;;;;1.30;1.13;;;;;;;;;;5086819;28;20238;-61
2023/03/12 05:24:14;;;;;;;0.90;0.90;;;;;;;;;;5069973;28;20214;-61
2023/03/12 05:26:41;;;;;;;1.20;1.20;;;;;;;;;;5080839;28;20216;-61
2023/03/12 05:29:08;;;;;;;2.50;0.93;;;;;;;;;;5070117;28;20680;-61
2023/03/12 05:31:35;;;;;;;1.00;1.00;;;;;;;;;;5080764;28;20205;-61
2023/03/12 05:34:03;;;;;;;0.67;0.67;;;;;;;;;;5069643;28;20211;-61
2023/03/12 05:36:31;;;;;;;0.90;0.90;;;;;;;;;;5069798;28;20268;-61
2023/03/12 05:38:58;;;;;;;0.60;0.60;;;;;;;;;;5087683;28;20243;-60
2023/03/12 05:41:27;;;;;;;2.03;1.23;;;;;;;;;;5088535;28;20225;-60
2023/03/12 05:43:55;;;;;;;1.00;0.80;;;;;;;;;;5088118;28;20214;-60
2023/03/12 05:46:22;;;;;;;1.47;1.37;;;;;;;;;;5080963;28;20243;-60
2023/03/12 05:48:49;;;;;;;1.20;1.10;;;;;;;;;;5069214;28;20228;-60
2023/03/12 05:51:16;;;;;;;1.20;1.03;;;;;;;;;;5070981;28;20704;-60
2023/03/12 05:53:45;;;;;;;1.30;1.30;;;;;;;;;;5070335;28;20260;-60
2023/03/12 05:56:13;;;;;;;1.27;1.17;;;;;;;;;;5070276;28;20212;-60
2023/03/12 05:58:40;;;;;;;4.63;1.17;;;;;;;;;;5078224;28;20268;-59
2023/03/12 06:01:11;;;;;;;0.70;0.70;;;;;;;;;;5088975;28;20226;-59
2023/03/12 06:03:39;;;;;;;0.70;0.70;;;;;;;;;;5080608;28;20675;-59
2023/03/12 06:06:06;;;;;;;1.00;1.00;;;;;;;;;;5069284;28;20221;-59
2023/03/12 06:08:33;;;;;;;1.20;1.07;;;;;;;;;;5075780;28;20668;-59
2023/03/12 06:11:01;;;;;;;1.13;1.03;;;;;;;;;;5074927;28;20196;-59
2023/03/12 06:13:28;;;;;;;3.17;1.60;;;;;;;;;;5074762;28;20703;-59
2023/03/12 06:15:55;;;;;;;2.80;1.40;;;;;;;;;;5075746;28;20226;-59
2023/03/12 06:18:22;;;;;;;1.40;1.30;;;;;;;;;;5072783;28;20219;-59
2023/03/12 06:20:49;;;;;;;1.50;1.40;;;;;;;;;;5076197;28;20692;-58
2023/03/12 06:23:16;;;;;;;2.53;1.43;;;;;;;;;;5071749;28;20197;-59
2023/03/12 06:25:45;;;;;;;0.87;0.87;;;;;;;;;;5087212;28;20823;-59
2023/03/12 06:28:13;;;;;;;1.83;1.37;;;;;;;;;;5086618;28;20660;-59
2023/03/12 06:30:40;;;;;;;3.47;3.17;;;;;;;;;;5068820;28;20199;-59
2023/03/12 06:33:11;;;;;;;0.70;0.70;;;;;;;;;;5069319;28;20212;-60
2023/03/12 06:35:38;;;;;;;1.50;1.43;;;;;;;;;;5077774;28;20833;-59
2023/03/12 06:38:05;;;;;;;2.33;1.57;;;;;;;;;;5069730;28;20653;-59
2023/03/12 06:40:32;;;;;;;1.70;1.33;;;;;;;;;;5078365;28;20641;-59
2023/03/12 06:42:59;;;;;;;1.57;1.47;;;;;;;;;;5088365;28;20210;-59
2023/03/12 06:45:28;;;;;;;1.50;1.50;;;;;;;;;;5058169;28;20203;-59
2023/03/12 06:47:55;;;;;;;1.40;1.17;;;;;;;;;;5068913;28;20211;-59
2023/03/12 06:50:22;;;;;;;3.37;1.43;;;;;;;;;;5086393;28;20222;-59
2023/03/12 06:52:49;;;;;;;1.00;1.00;;;;;;;;;;5092799;28;20208;-59
2023/03/12 06:55:16;;;;;;;0.90;0.90;;;;;;;;;;5080919;28;20211;-59
2023/03/12 06:57:49;;;;;;;1.17;1.07;;;;;;;;;;5072649;28;20216;-60
2023/03/12 07:00:16;;;;;;;1.73;1.63;;;;;;;;;;5087145;28;20213;-59
2023/03/12 07:02:44;;;;;;;0.80;0.80;;;;;;;;;;5089463;28;20861;-59
2023/03/12 07:05:11;;;;;;;3.37;1.57;;;;;;;;;;5092100;28;20206;-59
2023/03/12 07:07:38;;;;;;;1.93;1.07;;;;;;;;;;5077253;28;20215;-59
2023/03/12 07:10:06;;;;;;;1.47;1.47;;;;;;;;;;5072371;28;20221;-59
2023/03/12 07:12:33;;;;;;;1.90;1.80;;;;;;;;;;5087440;28;20289;-59
2023/03/12 07:15:00;;;;;;;1.40;1.37;;;;;;;;;;5078305;28;20212;-59
2023/03/12 07:17:27;;;;;;;3.00;1.50;;;;;;;;;;5075847;28;20226;-59
2023/03/12 07:19:55;;;;;;;2.63;1.40;;;;;;;;;;5073085;28;20218;-59
2023/03/12 07:22:22;;;;;;;2.93;1.77;;;;;;;;;;5073154;28;20233;-60
2023/03/12 07:24:50;;;;;;;1.30;1.30;;;;;;;;;;5072074;28;20212;-59
2023/03/12 07:27:17;;;;;;;6.60;1.73;;;;;;;;;;5083054;28;20210;-60
2023/03/12 07:29:44;;;;;;;1.27;1.23;;;;;;;;;;5080423;28;20210;-59
2023/03/12 07:32:11;;;;;;;1.83;1.80;;;;;;;;;;5081920;28;20312;-59
2023/03/12 07:34:38;;;;;;;2.43;2.17;;;;;;;;;;5080842;28;20212;-60
2023/03/12 07:37:07;;;;;;;2.10;1.83;;;;;;;;;;5080495;28;20274;-59
2023/03/12 07:39:34;;;;;;;2.67;2.17;;;;;;;;;;5091793;28;20201;-59
2023/03/12 07:42:01;;;;;;;2.97;2.30;;;;;;;;;;5084367;28;20226;-60
2023/03/12 07:44:28;;;;;;;3.53;2.17;;;;;;;;;;5076702;28;20252;-60
2023/03/12 07:46:55;;;;;;;1.80;1.77;;;;;;;;;;5071664;28;20209;-60
2023/03/12 07:49:22;;;;;;;2.30;2.03;;;;;;;;;;5071646;28;20267;-60
2023/03/12 07:51:49;;;;;;;7.03;2.17;;;;;;;;;;5077214;28;20197;-61
2023/03/12 07:54:17;;;;;;;3.83;2.30;;;;;;;;;;5091784;28;20216;-61
2023/03/12 07:56:44;;;;;;;5.00;2.77;;;;;;;;;;5085559;28;20652;-60
2023/03/12 07:59:11;;;;;;;1.77;1.67;;;;;;;;;;5074400;28;20215;-60
2023/03/12 08:01:38;;;;;;;2.67;2.47;;;;;;;;;;5069421;28;20214;-60
2023/03/12 08:04:05;;;;;;;2.57;2.20;;;;;;;;;;5073301;28;20263;-61
2023/03/12 08:06:32;;;;;;;3.10;2.40;;;;;;;;;;5071459;28;20207;-60
2023/03/12 08:09:00;;;;;;;5.20;2.60;;;;;;;;;;5068365;28;20202;-60
2023/03/12 08:11:29;;;;;;;3.97;2.97;;;;;;;;;;5062079;28;20305;-61
2023/03/12 08:13:56;;;;;;;3.10;2.90;;;;;;;;;;5089678;28;20300;-61
2023/03/12 08:16:23;;;;;;;4.90;3.10;;;;;;;;;;5087004;28;20209;-61
2023/03/12 08:18:50;;;;;;;4.27;2.70;;;;;;;;;;5071096;28;20586;-60
2023/03/12 08:21:17;;;;;;;2.40;2.23;;;;;;;;;;5070990;28;20964;-60
2023/03/12 08:23:44;;;;;;;7.67;2.77;;;;;;;;;;5071097;28;20211;-60
2023/03/12 08:26:11;;;;;;;3.07;2.77;;;;;;;;;;5072534;28;20214;-60
2023/03/12 08:28:39;;;;;;;8.23;3.87;;;;;;;;;;5091063;28;20205;-60
2023/03/12 08:31:08;;;;;;;3.60;2.90;;;;;;;;;;5090657;28;20207;-60
2023/03/12 08:33:35;;;;;;;5.10;2.93;;;;;;;;;;5078363;28;20618;-59
2023/03/12 08:36:02;;;;;;;4.33;3.37;;;;;;;;;;5081203;28;20691;-60
2023/03/12 08:38:29;;;;;;;6.83;4.00;;;;;;;;;;5071008;28;20234;-60
2023/03/12 08:40:57;;;;;;;3.20;2.90;;;;;;;;;;5070643;28;20199;-60
2023/03/12 08:43:24;;;;;;;4.50;3.10;;;;;;;;;;5077097;28;20232;-60
2023/03/12 08:45:55;;;;;;;2.83;2.50;;;;;;;;;;5073821;28;20205;-60
2023/03/12 08:48:22;;;;;;;3.03;2.70;;;;;;;;;;5071149;28;20225;-60
2023/03/12 08:50:50;;;;;;;9.07;3.70;;;;;;;;;;5070586;28;20585;-60
2023/03/12 08:53:17;;;;;;;6.63;3.37;;;;;;;;;;5066355;28;20608;-60
2023/03/12 08:55:44;;;;;;;2.47;2.37;;;;;;;;;;5050770;28;20750;-60
2023/03/12 08:58:11;;;;;;;5.27;3.33;;;;;;;;;;5085970;28;20300;-60
2023/03/12 09:00:38;;;;;;;5.70;3.30;;;;;;;;;;5090947;28;20300;-60
2023/03/12 09:03:07;;;;;;;5.43;3.37;;;;;;;;;;5073141;28;20287;-59
2023/03/12 09:05:34;;;;;;;4.57;3.70;;;;;;;;;;5069698;28;20657;-61
2023/03/12 09:08:01;;;;;;;4.67;3.10;;;;;;;;;;5075663;28;20210;-63
2023/03/12 09:10:28;;;;;;;3.53;2.83;;;;;;;;;;5069905;28;20295;-61
2023/03/12 09:12:55;;;;;;;5.67;3.70;;;;;;;;;;5079887;28;20201;-60
2023/03/12 09:15:22;;;;;;;5.07;3.53;;;;;;;;;;5069752;28;20670;-60
2023/03/12 09:17:49;;;;;;;3.67;3.37;;;;;;;;;;5069898;28;20210;-60
2023/03/12 09:20:17;;;;;;;6.03;3.53;;;;;;;;;;5069244;28;20214;-64
2023/03/12 09:22:46;;;;;;;4.83;3.80;;;;;;;;;;5080413;28;20595;-67
2023/03/12 09:25:13;;;;;;;9.87;4.10;;;;;;;;;;5071543;28;20774;-68
2023/03/12 09:27:41;;;;;;;5.93;4.30;;;;;;;;;;5078883;28;20212;-68
2023/03/12 09:30:09;;;;;;;9.60;4.57;;;;;;;;;;5070998;28;20289;-66
2023/03/12 09:32:36;;;;;;;11.53;5.57;;;;;;;;;;5059279;28;20223;-68
2023/03/12 09:35:04;;;;;;;5.37;3.87;;;;;;;;;;5061409;28;20203;-66
2023/03/12 09:37:32;;;;;;;6.80;4.93;;;;;;;;;;5058421;28;20241;-66
2023/03/12 09:40:00;;;;;;;20.67;5.23;;;;;;;;;;5069349;28;20289;-60
2023/03/12 09:42:30;;;;;;;14.23;4.40;;;;;;;;;;5089699;28;20291;-60
2023/03/12 09:45:00;;;;;;;4.93;3.47;;;;;;;;;;5089673;28;20206;-61
2023/03/12 09:47:29;;;;;;;11.77;6.23;;;;;;;;;;5064969;28;20203;-61
2023/03/12 09:49:59;;;;;;;11.07;4.97;;;;;;;;;;5081053;28;20214;-61
2023/03/12 09:52:28;;;;;;;12.73;4.67;;;;;;;;;;5075683;28;20197;-62
2023/03/12 09:54:59;;;;;;;14.97;5.30;;;;;;;;;;5072593;28;20660;-62
2023/03/12 09:57:28;;;;;;;6.87;4.53;;;;;;;;;;5071759;28;20207;-62
2023/03/12 09:59:56;;;;;;;9.63;4.37;;;;;;;;;;5083281;28;20755;-62
2023/03/12 10:02:42;;;;;;;5.83;4.23;;;;;;;;;;5084718;28;20708;-62
2023/03/12 10:05:11;;;;;;;7.13;4.30;;;;;;;;;;5085963;28;20537;-61
2023/03/12 10:07:40;;;;;;;12.57;4.50;;;;;;;;;;5086752;28;20669;-61
2023/03/12 10:10:11;;;;;;;6.60;4.27;;;;;;;;;;5087244;28;20209;-61
2023/03/12 10:12:45;;;;;;;13.07;6.47;;;;;;;;;;5087885;28;20209;-61
2023/03/12 10:15:17;;;;;;;3.83;3.53;;;;;;;;;;5085601;28;20354;-61
2023/03/12 10:17:51;;;;;;;10.13;4.43;;;;;;;;;;5076031;28;20306;-61
2023/03/12 10:20:36;;;;;;;7.13;4.40;;;;;;;;;;5067942;28;20214;-61
2023/03/12 10:23:07;;;;;;;7.10;3.53;;;;;;;;;;5068109;28;20239;-61
2023/03/12 10:25:37;;;;;;;11.57;4.63;;;;;;;;;;5068142;28;20677;-62
2023/03/12 10:28:12;;;;;;;9.30;5.17;;;;;;;;;;5067921;28;20215;-62
2023/03/12 10:30:41;;;;;;;5.37;4.40;;;;;;;;;;5068463;28;20206;-61
2023/03/12 10:33:11;;;;;;;9.63;4.20;;;;;;;;;;5067807;28;20316;-62
2023/03/12 10:35:39;;;;;;;9.53;5.47;;;;;;;;;;5066675;28;20218;-62
2023/03/12 10:38:11;;;;;;;7.53;5.40;;;;;;;;;;5068070;28;20944;-62
2023/03/12 10:40:38;;;;;;;5.70;4.33;;;;;;;;;;5067948;28;20649;-62
2023/03/12 10:43:08;;;;;;;9.83;4.70;;;;;;;;;;5068253;28;20321;-62
2023/03/12 10:45:39;;;;;;;5.50;4.23;;;;;;;;;;5067642;28;20329;-62
2023/03/12 10:48:07;;;;;;;6.47;5.17;;;;;;;;;;5068216;28;20215;-62
2023/03/12 10:50:35;;;;;;;9.23;5.47;;;;;;;;;;5067732;28;20224;-62
2023/03/12 10:53:22;;;;;;;10.67;5.47;;;;;;;;;;5067844;28;20203;-62
2023/03/12 10:55:59;;;;;;;9.20;5.00;;;;;;;;;;5067881;28;20244;-62
2023/03/12 10:58:31;;;;;;;7.40;4.87;;;;;;;;;;5067635;28;20257;-62
2023/03/12 11:00:59;;;;;;;7.13;4.93;;;;;;;;;;5068147;28;20209;-62
2023/03/12 11:03:27;;;;;;;14.43;4.23;;;;;;;;;;5067764;28;20793;-62
2023/03/12 11:05:55;;;;;;;7.37;4.53;;;;;;;;;;5067566;28;20616;-62
2023/03/12 11:08:25;;;;;;;9.00;4.80;;;;;;;;;;5068210;28;20760;-62
2023/03/12 11:10:54;;;;;;;6.20;4.50;;;;;;;;;;5067888;28;20584;-62
2023/03/12 11:13:22;;;;;;;8.30;4.73;;;;;;;;;;5067697;28;20637;-62
2023/03/12 11:15:51;;;;;;;5.53;5.00;;;;;;;;;;5068121;28;20208;-62
2023/03/12 11:18:20;;;;;;;6.77;4.47;;;;;;;;;;5067825;28;20333;-62
2023/03/12 11:20:49;;;;;;;12.70;5.17;;;;;;;;;;5067522;28;20532;-62
2023/03/12 11:23:17;;;;;;;7.97;5.37;;;;;;;;;;5067849;28;20241;-62
2023/03/12 11:25:44;;;;;;;10.70;4.87;;;;;;;;;;5067785;28;20209;-62
2023/03/12 11:28:17;;;;;;;8.57;4.33;;;;;;;;;;5067727;28;20276;-62
2023/03/12 11:30:44;;;;;;;5.10;4.47;;;;;;;;;;5067930;28;20211;-62
2023/03/12 11:33:13;;;;;;;6.80;4.73;;;;;;;;;;5067384;28;20205;-62
2023/03/12 11:35:47;;;;;;;6.73;5.20;;;;;;;;;;5067793;28;20214;-62
2023/03/12 11:38:17;;;;;;;9.23;4.87;;;;;;;;;;5070844;28;20276;-62
2023/03/12 11:40:57;;;;;;;6.43;5.07;;;;;;;;;;5071396;28;20230;-61
2023/03/12 11:43:33;;;;;;;6.67;5.07;;;;;;;;;;5071074;28;20286;-61
2023/03/12 11:46:08;;;;;;;9.27;5.87;;;;;;;;;;5071100;28;20211;-62
2023/03/12 11:48:40;;;;;;;6.40;4.93;;;;;;;;;;5071278;28;20214;-62
2023/03/12 11:51:14;;;;;;;10.23;5.10;;;;;;;;;;5070743;28;20215;-62
2023/03/12 11:53:56;;;;;;;8.77;5.40;;;;;;;;;;5071120;28;20207;-62
2023/03/12 11:56:27;;;;;;;7.93;5.40;;;;;;;;;;5071259;28;20218;-62
2023/03/12 11:59:02;;;;;;;9.20;5.13;;;;;;;;;;5070921;28;20611;-62
2023/03/12 12:01:33;;;;;;;9.50;5.30;;;;;;;;;;5070923;28;20688;-62
2023/03/12 12:04:18;;;;;;;7.13;5.13;;;;;;;;;;5070805;28;20234;-62
2023/03/12 12:06:53;;;;;;;6.00;4.53;;;;;;;;;;5070728;28;20215;-62
2023/03/12 12:09:23;;;;;;;9.00;5.13;;;;;;;;;;5070765;28;20247;-62
2023/03/12 12:11:54;;;;;;;7.33;5.03;;;;;;;;;;5070452;28;20296;-62
2023/03/12 12:14:30;;;;;;;9.83;5.27;;;;;;;;;;5070687;28;20700;-62
2023/03/12 12:17:03;;;;;;;9.87;6.10;;;;;;;;;;5070100;28;20210;-61
2023/03/12 12:19:38;;;;;;;7.97;5.70;;;;;;;;;;5070524;28;20677;-62
2023/03/12 12:22:17;;;;;;;9.37;5.83;;;;;;;;;;5070387;28;20238;-62
2023/03/12 12:24:51;;;;;;;6.77;5.80;;;;;;;;;;5070241;28;20203;-62
2023/03/12 12:27:20;;;;;;;10.03;5.73;;;;;;;;;;5070781;28;20214;-62
2023/03/12 12:30:00;;;;;;;5.50;4.90;;;;;;;;;;5070288;28;20264;-62
2023/03/12 12:32:32;;;;;;;5.50;4.70;;;;;;;;;;5070444;28;20211;-61
2023/03/12 12:35:07;;;;;;;8.27;5.03;;;;;;;;;;5070024;28;20247;-62
2023/03/12 12:37:42;;;;;;;6.43;4.83;;;;;;;;;;5070030;28;20246;-62
2023/03/12 12:40:15;;;;;;;5.83;4.90;;;;;;;;;;5070195;28;20209;-62
2023/03/12 12:42:48;;;;;;;6.27;4.40;;;;;;;;;;5069588;28;20723;-62
2023/03/12 12:45:16;;;;;;;5.17;4.40;;;;;;;;;;5070244;28;20241;-61
2023/03/12 12:47:47;;;;;;;7.70;4.97;;;;;;;;;;5069860;28;20681;-61
2023/03/12 12:50:16;;;;;;;5.90;4.83;;;;;;;;;;5069702;28;20214;-61
2023/03/12 12:52:44;;;;;;;5.50;4.23;;;;;;;;;;5069930;28;20260;-61
2023/03/12 12:55:14;;;;;;;5.07;4.57;;;;;;;;;;5069658;28;20656;-61
2023/03/12 12:57:42;;;;;;;5.17;4.67;;;;;;;;;;5069752;28;20254;-61
2023/03/12 13:00:22;;;;;;;4.87;4.37;;;;;;;;;;5069733;28;20377;-62
2023/03/12 13:02:50;;;;;;;6.00;5.40;;;;;;;;;;5069698;28;20234;-61
2023/03/12 13:05:22;;;;;;;4.63;4.23;;;;;;;;;;5069128;28;20206;-62
2023/03/12 13:07:50;;;;;;;5.90;4.80;;;;;;;;;;5069717;28;20276;-61
2023/03/12 13:10:36;;;;;;;7.00;5.37;;;;;;;;;;5069697;28;20268;-61
2023/03/12 13:13:04;;;;;;;5.47;4.80;;;;;;;;;;5069511;28;20203;-61
2023/03/12 13:15:38;;;;;;;6.23;4.20;;;;;;;;;;5069357;28;20218;-62
2023/03/12 13:18:08;;;;;;;5.50;4.10;;;;;;;;;;5069815;28;20306;-61
2023/03/12 13:20:41;;;;;;;4.77;4.33;;;;;;;;;;5076650;28;20206;-61
2023/03/12 13:23:33;;;;;;;5.20;4.57;;;;;;;;;;5083807;28;20233;-61
2023/03/12 13:26:04;;;;;;;98.07;30.00;;;;;;;;;;5076084;28;20210;-61
2023/03/12 13:28:35;;;;;;;9.67;6.60;;;;;;;;;;5086500;28;20437;-61
2023/03/12 13:31:03;;;;;;;35.13;18.10;;;;;;;;;;5067749;28;20341;-61
2023/03/12 13:33:39;;;;;;;18.43;10.70;;;;;;;;;;5065585;28;20203;-61
2023/03/12 13:36:11;;;;;;;7.23;4.83;;;;;;;;;;5067632;28;20210;-61
2023/03/12 13:38:53;;;;;;;7.20;4.93;;;;;;;;;;5069056;28;20538;-61
2023/03/12 13:41:30;;;;;;;6.67;4.13;;;;;;;;;;5075879;28;20199;-61
2023/03/12 13:43:58;;;;;;;5.53;4.30;;;;;;;;;;5069241;28;20227;-61
2023/03/12 13:46:36;;;;;;;6.70;4.17;;;;;;;;;;5069202;28;20293;-61
2023/03/12 13:49:06;;;;;;;6.23;4.00;;;;;;;;;;5069243;28;20215;-61
2023/03/12 13:51:33;;;;;;;6.43;5.20;;;;;;;;;;5069243;28;20219;-62
2023/03/12 13:54:03;;;;;;;4.60;4.20;;;;;;;;;;5068920;28;20198;-62
2023/03/12 13:56:31;;;;;;;6.87;4.43;;;;;;;;;;5072150;28;20214;-61
2023/03/12 13:59:01;;;;;;;4.80;4.27;;;;;;;;;;5068703;28;20260;-61
2023/03/12 14:01:29;;;;;;;4.60;3.80;;;;;;;;;;5068949;28;20218;-63
2023/03/12 14:03:58;;;;;;;4.93;3.93;;;;;;;;;;5068996;28;20226;-61
2023/03/12 14:06:27;;;;;;;4.20;3.80;;;;;;;;;;5068747;28;20214;-61
2023/03/12 14:09:00;;;;;;;3.70;3.27;;;;;;;;;;5068688;28;20217;-61
2023/03/12 14:11:37;;;;;;;8.37;4.50;;;;;;;;;;5068747;28;20207;-62
2023/03/12 14:14:13;;;;;;;5.87;4.30;;;;;;;;;;5068836;28;20668;-61
2023/03/12 14:16:44;;;;;;;4.80;3.97;;;;;;;;;;5068900;28;20283;-62
2023/03/12 14:19:13;;;;;;;5.37;4.37;;;;;;;;;;5068579;28;20200;-61
2023/03/12 14:21:42;;;;;;;9.23;3.97;;;;;;;;;;5068822;28;20231;-62
2023/03/12 14:24:15;;;;;;;4.53;4.07;;;;;;;;;;5068496;28;20226;-62
2023/03/12 14:26:47;;;;;;;7.33;4.30;;;;;;;;;;5074831;28;20193;-62
2023/03/12 14:29:19;;;;;;;7.00;4.27;;;;;;;;;;5071731;28;20203;-62
2023/03/12 14:31:47;;;;;;;6.83;5.10;;;;;;;;;;5069126;28;20724;-67
2023/03/12 14:34:19;;;;;;;5.30;4.80;;;;;;;;;;5072616;28;20308;-62
2023/03/12 14:36:49;;;;;;;6.83;5.23;;;;;;;;;;5076317;28;20203;-61
2023/03/12 14:39:27;;;;;;;5.37;4.87;;;;;;;;;;5068375;28;20239;-62
2023/03/12 14:41:58;;;;;;;5.50;5.00;;;;;;;;;;5068606;28;20290;-61
2023/03/12 14:44:26;;;;;;;7.30;5.20;;;;;;;;;;5068130;28;20227;-62
2023/03/12 14:46:57;;;;;;;6.17;5.10;;;;;;;;;;5083272;28;20210;-61
2023/03/12 14:49:24;;;;;;;7.40;5.70;;;;;;;;;;5056035;28;20215;-62
2023/03/12 14:51:52;;;;;;;6.80;5.60;;;;;;;;;;5062958;28;20692;-63
2023/03/12 14:54:19;;;;;;;8.03;5.03;;;;;;;;;;5068435;28;20206;-62